Salem, Massachusetts
Current Conditions -  °F | °C
As of 8:53 AM on Monday 20 Oct 2014 (Local Time) from KBVY Reporting Station
Scattered Clouds Scattered Clouds  
Wind Chill: 35°   Ceiling: Unl
Heat Index: 41°   Visibility: 10mi
Dew Point: 27°   Wind: 10mph
Humidity: 57%   Direction: 240°WSW
Pressure: 30.05"   Gusts: NA
Location:  42.52°N, 70.89°W
Report Text: KBVY 201253Z 24009KT 10SM SCT200 05/M03 A3005 RMK AO2 SLP172 T00501028
Loading
Personal Weather Stations






























Interactive Weather Map
Tropical Storm Tracking
New forecast layout! Learn more

10-Day Weather Forecast

Advertisements
Track Severe Weather on mobile